Time;durP1;ratioP1;P1;durP2;ratioP2;P2;SDS_P1;SDS_P2;PMS_P1;PMS_P2;Temp;Humidity;BMP_temperature;BMP_pressure;BME280_temperature;BME280_humidity;BME280_pressure;Samples;Min_cycle;Max_cycle;Signal;HPM_P1;HPM_P2
2021/10/17 00:00:33;;;;;;;1.45;1.08;;;7.50;99.10;;;;;;4913477;29;20206;-82
2021/10/17 00:03:00;;;;;;;0.60;0.50;;;7.50;99.10;;;;;;4914353;29;20170;-82
2021/10/17 00:05:28;;;;;;;0.80;0.70;;;7.40;99.10;;;;;;4913955;29;20178;-82
2021/10/17 00:07:54;;;;;;;0.63;0.52;;;7.40;99.10;;;;;;4913761;29;20612;-82
2021/10/17 00:10:29;;;;;;;0.60;0.50;;;7.40;99.10;;;;;;4913831;29;20335;-82
2021/10/17 00:12:58;;;;;;;0.50;0.40;;;7.40;99.10;;;;;;4913565;29;20182;-82
2021/10/17 00:15:26;;;;;;;0.60;0.50;;;7.40;99.10;;;;;;4915404;29;20181;-82
2021/10/17 00:17:52;;;;;;;6.20;1.08;;;7.40;99.10;;;;;;4916865;29;20550;-81
2021/10/17 00:20:21;;;;;;;0.70;0.60;;;7.40;99.10;;;;;;4916418;29;20201;-81
2021/10/17 00:22:47;;;;;;;0.60;0.50;;;7.40;99.10;;;;;;4916342;29;20827;-81
2021/10/17 00:25:14;;;;;;;0.75;0.70;;;7.30;99.10;;;;;;4916129;29;20229;-81
2021/10/17 00:27:40;;;;;;;1.75;0.75;;;7.30;99.10;;;;;;4916622;29;20202;-81
2021/10/17 00:30:07;;;;;;;2.25;0.50;;;7.30;99.10;;;;;;4916457;29;20551;-81
2021/10/17 00:32:34;;;;;;;1.02;0.93;;;7.20;99.10;;;;;;4916140;29;20672;-81
2021/10/17 00:35:01;;;;;;;0.50;0.40;;;7.20;99.10;;;;;;4916047;29;20178;-81
2021/10/17 00:37:31;;;;;;;1.73;1.63;;;7.20;99.10;;;;;;4916663;29;20198;-81
2021/10/17 00:39:57;;;;;;;0.70;0.60;;;7.20;99.10;;;;;;4915791;29;20260;-81
2021/10/17 00:42:23;;;;;;;0.80;0.70;;;7.10;99.10;;;;;;4916176;29;20181;-81
2021/10/17 00:44:57;;;;;;;0.50;0.40;;;7.10;99.10;;;;;;4916101;29;20281;-81
2021/10/17 00:47:23;;;;;;;1.80;1.70;;;7.10;99.10;;;;;;4916419;29;20194;-81
2021/10/17 00:49:49;;;;;;;0.70;0.60;;;7.10;99.10;;;;;;4916251;29;20185;-81
2021/10/17 00:52:16;;;;;;;0.50;0.40;;;7.00;99.10;;;;;;4915952;29;20445;-82
2021/10/17 00:54:43;;;;;;;0.70;0.60;;;7.00;99.10;;;;;;4916433;29;20422;-82
2021/10/17 00:57:10;;;;;;;0.77;0.68;;;7.00;99.10;;;;;;4916197;29;20198;-82
2021/10/17 00:59:36;;;;;;;1.75;0.93;;;6.90;99.10;;;;;;4916561;29;20232;-82
2021/10/17 01:02:01;;;;;;;0.70;0.60;;;6.90;99.10;;;;;;4916082;29;20583;-82
2021/10/17 01:04:27;;;;;;;0.60;0.50;;;7.00;99.10;;;;;;4915798;29;20509;-82
2021/10/17 01:06:53;;;;;;;0.50;0.40;;;7.00;99.10;;;;;;4916083;29;20277;-81
2021/10/17 01:09:19;;;;;;;0.70;0.60;;;7.00;99.10;;;;;;4915994;29;20415;-82
2021/10/17 01:11:47;;;;;;;0.80;0.70;;;7.10;99.10;;;;;;4916522;29;20594;-82
2021/10/17 01:14:21;;;;;;;0.98;0.88;;;7.10;99.10;;;;;;4915759;29;20186;-81
2021/10/17 01:16:48;;;;;;;0.65;0.55;;;7.00;99.10;;;;;;4916118;29;20198;-82
2021/10/17 01:19:14;;;;;;;2.78;1.48;;;7.00;99.10;;;;;;4916651;29;20237;-82
2021/10/17 01:21:41;;;;;;;0.70;0.60;;;7.10;99.10;;;;;;4915878;29;20253;-82
2021/10/17 01:24:08;;;;;;;1.02;0.95;;;7.10;99.10;;;;;;4916227;29;20583;-82
2021/10/17 01:26:34;;;;;;;0.60;0.50;;;7.00;99.10;;;;;;4981705;22;20234;-78
2021/10/17 01:29:01;;;;;;;0.50;0.40;;;7.00;99.10;;;;;;4913593;29;20216;-78
2021/10/17 01:31:42;;;;;;;0.98;0.88;;;7.00;99.10;;;;;;4913596;29;20556;-78
2021/10/17 01:34:08;;;;;;;0.50;0.40;;;7.00;99.10;;;;;;4913390;29;20234;-78
2021/10/17 01:36:37;;;;;;;1.05;0.95;;;7.00;99.10;;;;;;4913197;29;20340;-78
2021/10/17 01:39:04;;;;;;;0.77;0.75;;;6.90;99.10;;;;;;4913436;29;20288;-78
2021/10/17 01:41:30;;;;;;;1.38;0.60;;;7.00;99.10;;;;;;4913418;29;20236;-78
2021/10/17 01:44:07;;;;;;;0.50;0.40;;;7.00;99.10;;;;;;4913371;29;20210;-78
2021/10/17 01:46:35;;;;;;;2.05;1.63;;;6.90;99.10;;;;;;4913065;29;20957;-79
2021/10/17 01:49:02;;;;;;;1.30;1.20;;;6.90;99.10;;;;;;4913366;29;20174;-78
2021/10/17 01:51:28;;;;;;;4.80;0.80;;;6.90;99.10;;;;;;4913054;29;20221;-78
2021/10/17 01:53:53;;;;;;;0.60;0.50;;;6.80;99.10;;;;;;4913225;29;20264;-78
2021/10/17 01:56:19;;;;;;;0.83;0.73;;;6.80;99.10;;;;;;4912944;29;20414;-78
2021/10/17 01:58:45;;;;;;;0.90;0.70;;;6.80;99.10;;;;;;4913110;29;20184;-78
2021/10/17 02:01:11;;;;;;;0.80;0.80;;;6.80;99.10;;;;;;4913102;29;20209;-78
2021/10/17 02:03:36;;;;;;;0.50;0.40;;;6.80;99.10;;;;;;4912972;29;20170;-78
2021/10/17 02:06:02;;;;;;;0.50;0.40;;;6.80;99.10;;;;;;4912953;29;20174;-80
2021/10/17 02:08:29;;;;;;;0.70;0.60;;;6.70;99.10;;;;;;4912934;29;20194;-77
2021/10/17 02:10:55;;;;;;;0.50;0.40;;;6.80;99.10;;;;;;4912928;29;20514;-78
2021/10/17 02:13:21;;;;;;;0.63;0.60;;;6.80;99.10;;;;;;4912809;29;20175;-78
2021/10/17 02:15:47;;;;;;;0.50;0.40;;;6.80;99.10;;;;;;4912943;29;20236;-78
2021/10/17 02:18:13;;;;;;;0.50;0.40;;;6.90;99.10;;;;;;4912858;29;20430;-78
2021/10/17 02:20:39;;;;;;;0.50;0.40;;;6.90;99.10;;;;;;4912708;29;20193;-78
2021/10/17 02:23:05;;;;;;;0.50;0.40;;;6.90;99.10;;;;;;4912694;29;20420;-78
2021/10/17 02:25:32;;;;;;;0.50;0.40;;;6.90;99.10;;;;;;4912468;29;20434;-78
2021/10/17 02:27:59;;;;;;;0.65;0.60;;;6.90;99.10;;;;;;4912613;29;20198;-78
2021/10/17 02:30:25;;;;;;;0.95;0.85;;;7.00;99.10;;;;;;4912795;29;20243;-78
2021/10/17 02:32:51;;;;;;;0.80;0.70;;;7.00;99.10;;;;;;4912438;29;20186;-78
2021/10/17 02:35:17;;;;;;;0.50;0.40;;;7.10;99.10;;;;;;4912528;29;20235;-78
2021/10/17 02:37:42;;;;;;;1.00;0.90;;;7.10;99.10;;;;;;4911620;29;20816;-78
2021/10/17 02:40:09;;;;;;;0.70;0.60;;;7.00;99.10;;;;;;4912472;29;20470;-78
2021/10/17 02:42:35;;;;;;;0.50;0.40;;;7.00;99.10;;;;;;4912371;29;20494;-78
2021/10/17 02:45:01;;;;;;;0.53;0.43;;;7.00;99.10;;;;;;4912325;29;20213;-77
2021/10/17 02:47:27;;;;;;;4.88;0.75;;;7.00;99.10;;;;;;4912422;29;20430;-78
2021/10/17 02:49:53;;;;;;;0.50;0.40;;;7.00;99.10;;;;;;4912300;29;20178;-78
2021/10/17 02:52:19;;;;;;;0.60;0.50;;;7.10;99.10;;;;;;4912236;29;20658;-78
2021/10/17 02:54:44;;;;;;;1.37;0.80;;;7.10;99.10;;;;;;4912383;29;20517;-79
2021/10/17 02:57:10;;;;;;;0.30;0.30;;;7.10;99.10;;;;;;4912166;29;20445;-78
2021/10/17 02:59:36;;;;;;;0.50;0.40;;;7.00;99.10;;;;;;4912273;29;21013;-78
2021/10/17 03:02:02;;;;;;;0.80;0.70;;;7.10;99.10;;;;;;4912250;29;20446;-78
2021/10/17 03:04:28;;;;;;;0.93;0.82;;;7.20;99.10;;;;;;4912068;29;20204;-78
2021/10/17 03:06:54;;;;;;;0.60;0.50;;;7.20;99.10;;;;;;4912133;29;20609;-78
2021/10/17 03:09:20;;;;;;;2.03;1.80;;;7.30;99.10;;;;;;4912445;29;20458;-78
2021/10/17 03:11:46;;;;;;;0.60;0.50;;;7.30;99.10;;;;;;4911992;29;21021;-78
2021/10/17 03:14:12;;;;;;;0.60;0.50;;;7.40;99.10;;;;;;4912084;29;20182;-78
2021/10/17 03:16:38;;;;;;;0.55;0.52;;;7.40;99.10;;;;;;4912047;29;20995;-78
2021/10/17 03:19:03;;;;;;;1.37;0.93;;;7.30;99.10;;;;;;4911851;29;20228;-78
2021/10/17 03:21:29;;;;;;;0.90;0.87;;;7.30;99.10;;;;;;4911923;29;20268;-79
2021/10/17 03:23:55;;;;;;;0.50;0.40;;;7.40;99.10;;;;;;4911895;29;20265;-78
2021/10/17 03:26:21;;;;;;;0.53;0.43;;;7.50;99.10;;;;;;4911981;29;20224;-78
2021/10/17 03:28:46;;;;;;;0.50;0.40;;;7.50;99.10;;;;;;4911735;29;20938;-78
2021/10/17 03:31:12;;;;;;;0.67;0.60;;;7.50;99.10;;;;;;4912093;29;20421;-78
2021/10/17 03:33:38;;;;;;;0.50;0.40;;;7.60;99.10;;;;;;4911699;29;20174;-78
2021/10/17 03:36:04;;;;;;;0.60;0.50;;;7.60;99.10;;;;;;4911883;29;20227;-78
2021/10/17 03:38:30;;;;;;;0.70;0.40;;;7.60;99.10;;;;;;4911767;29;20178;-78
2021/10/17 03:40:56;;;;;;;4.32;2.45;;;7.60;99.10;;;;;;4911820;29;20185;-78
2021/10/17 03:43:22;;;;;;;0.50;0.40;;;7.50;99.10;;;;;;4911602;29;20236;-78
2021/10/17 03:45:48;;;;;;;0.70;0.60;;;7.60;99.10;;;;;;4911771;29;20658;-78
2021/10/17 03:48:14;;;;;;;1.23;1.10;;;7.50;99.10;;;;;;4912152;29;20197;-78
2021/10/17 03:50:40;;;;;;;1.40;0.80;;;7.60;99.10;;;;;;4915142;29;20676;-78
2021/10/17 03:53:05;;;;;;;0.40;0.40;;;7.60;99.10;;;;;;4914962;29;20178;-78
2021/10/17 03:55:31;;;;;;;1.07;0.97;;;7.60;99.10;;;;;;4914878;29;20945;-78
2021/10/17 03:57:57;;;;;;;0.70;0.60;;;7.60;99.10;;;;;;4914857;29;20537;-78
2021/10/17 04:00:24;;;;;;;0.70;0.60;;;7.60;99.10;;;;;;4914838;29;20213;-78
2021/10/17 04:02:50;;;;;;;3.53;0.95;;;7.60;99.10;;;;;;4914988;29;20177;-78
2021/10/17 04:05:16;;;;;;;0.50;0.40;;;7.60;99.10;;;;;;4914569;29;20209;-80
2021/10/17 04:07:42;;;;;;;0.57;0.50;;;7.50;99.10;;;;;;4914771;29;20720;-79
2021/10/17 04:10:08;;;;;;;1.67;1.13;;;7.50;99.10;;;;;;4914678;29;20537;-79
2021/10/17 04:12:34;;;;;;;0.80;0.70;;;7.50;99.10;;;;;;4914770;29;20418;-78
2021/10/17 04:15:00;;;;;;;1.43;0.60;;;7.50;99.10;;;;;;4914736;29;20177;-79
2021/10/17 04:17:26;;;;;;;0.50;0.40;;;7.50;99.10;;;;;;4914454;29;20508;-79
2021/10/17 04:19:52;;;;;;;0.50;0.40;;;7.50;99.10;;;;;;4914520;29;20744;-79
2021/10/17 04:22:19;;;;;;;0.50;0.40;;;7.50;99.10;;;;;;4915499;29;20590;-79
2021/10/17 04:24:46;;;;;;;0.50;0.40;;;7.60;99.10;;;;;;4915147;29;20669;-78
2021/10/17 04:27:12;;;;;;;0.50;0.40;;;7.60;99.10;;;;;;4915762;29;20690;-79
2021/10/17 04:29:38;;;;;;;0.90;0.80;;;7.60;99.10;;;;;;4914946;29;20182;-79
2021/10/17 04:32:06;;;;;;;1.30;0.60;;;7.60;99.10;;;;;;4915316;29;20186;-79
2021/10/17 04:34:32;;;;;;;0.40;0.40;;;7.60;99.10;;;;;;4915056;29;20716;-79
2021/10/17 04:36:58;;;;;;;0.50;0.40;;;7.60;99.10;;;;;;4915119;29;20194;-79
2021/10/17 04:39:24;;;;;;;0.82;0.73;;;7.60;99.10;;;;;;4915218;29;20450;-79
2021/10/17 04:41:50;;;;;;;1.70;0.60;;;7.60;99.10;;;;;;4915056;29;20174;-79
2021/10/17 04:44:16;;;;;;;0.50;0.40;;;7.50;99.10;;;;;;4915073;29;20178;-79
2021/10/17 04:46:42;;;;;;;0.50;0.40;;;7.50;99.10;;;;;;4915935;29;20442;-80
2021/10/17 04:49:07;;;;;;;0.50;0.40;;;7.50;99.10;;;;;;4916697;29;20421;-80
2021/10/17 04:51:33;;;;;;;0.60;0.50;;;7.50;99.10;;;;;;4914779;29;20469;-79
2021/10/17 04:53:59;;;;;;;0.70;0.60;;;7.60;99.10;;;;;;4915524;29;20182;-79
2021/10/17 04:56:25;;;;;;;0.50;0.40;;;7.60;99.10;;;;;;4915814;29;20437;-79
2021/10/17 04:58:51;;;;;;;0.60;0.50;;;7.50;99.10;;;;;;4914340;29;20980;-79
2021/10/17 05:01:17;;;;;;;0.93;0.83;;;7.60;99.10;;;;;;4913643;29;20670;-79
2021/10/17 05:03:42;;;;;;;0.88;0.77;;;7.60;99.10;;;;;;4915448;29;20421;-79
2021/10/17 05:06:10;;;;;;;0.30;0.30;;;7.60;99.10;;;;;;4914557;29;20514;-79
2021/10/17 05:08:37;;;;;;;0.60;0.50;;;7.60;99.10;;;;;;4914415;29;20480;-79
2021/10/17 05:11:03;;;;;;;2.35;1.67;;;7.50;99.10;;;;;;4914355;29;20642;-79
2021/10/17 05:13:29;;;;;;;1.60;0.97;;;7.50;99.10;;;;;;4915438;29;20254;-77
2021/10/17 05:15:55;;;;;;;0.93;0.60;;;7.60;99.10;;;;;;4914404;29;20809;-78
2021/10/17 05:18:21;;;;;;;0.50;0.40;;;7.60;99.10;;;;;;4914205;29;20198;-78
2021/10/17 05:20:47;;;;;;;0.50;0.40;;;7.60;99.10;;;;;;4914460;29;20198;-79
2021/10/17 05:23:14;;;;;;;0.60;0.50;;;7.60;99.10;;;;;;4915068;29;20426;-78
2021/10/17 05:25:41;;;;;;;0.50;0.40;;;7.60;99.10;;;;;;4913891;29;20449;-78
2021/10/17 05:28:07;;;;;;;0.60;0.50;;;7.50;99.10;;;;;;4913987;29;20221;-78
2021/10/17 05:30:33;;;;;;;0.60;0.50;;;7.50;99.10;;;;;;4913975;29;20182;-78
2021/10/17 05:33:00;;;;;;;1.30;0.98;;;7.50;99.10;;;;;;4913950;29;20666;-78
2021/10/17 05:35:26;;;;;;;0.65;0.55;;;7.50;99.10;;;;;;4913646;29;20655;-78
2021/10/17 05:37:52;;;;;;;0.40;0.40;;;7.50;99.10;;;;;;4913745;29;20259;-78
2021/10/17 05:40:18;;;;;;;0.73;0.70;;;7.60;99.10;;;;;;4913725;29;20283;-78
2021/10/17 05:42:44;;;;;;;0.50;0.40;;;7.60;99.10;;;;;;4913873;29;20429;-78
2021/10/17 05:45:10;;;;;;;0.70;0.60;;;7.60;99.10;;;;;;4913677;29;20265;-78
2021/10/17 05:47:37;;;;;;;0.60;0.50;;;7.60;99.10;;;;;;4913823;29;20248;-78
2021/10/17 05:50:03;;;;;;;2.05;1.88;;;7.60;99.10;;;;;;4913770;29;20190;-78
2021/10/17 05:52:29;;;;;;;0.70;0.60;;;7.70;99.10;;;;;;4913692;29;20213;-78
2021/10/17 05:54:55;;;;;;;8.00;1.00;;;7.80;99.10;;;;;;4913753;29;20216;-78
2021/10/17 05:57:20;;;;;;;0.70;0.60;;;7.80;99.10;;;;;;4913551;29;20260;-78
2021/10/17 05:59:46;;;;;;;0.50;0.40;;;7.80;99.10;;;;;;4913730;29;20204;-78
2021/10/17 06:02:12;;;;;;;0.40;0.40;;;7.70;99.10;;;;;;4913367;29;20264;-78
2021/10/17 06:04:38;;;;;;;0.50;0.50;;;7.70;99.10;;;;;;4913213;29;20614;-78
2021/10/17 06:07:04;;;;;;;0.83;0.73;;;7.70;99.10;;;;;;4913438;29;20200;-78
2021/10/17 06:09:38;;;;;;;0.60;0.50;;;7.70;99.10;;;;;;4913512;29;20428;-78
2021/10/17 06:12:05;;;;;;;0.50;0.40;;;7.70;99.10;;;;;;4913507;29;20571;-78
2021/10/17 06:14:31;;;;;;;0.50;0.40;;;7.70;99.10;;;;;;4913112;29;20228;-78
2021/10/17 06:16:57;;;;;;;0.50;0.40;;;7.60;99.10;;;;;;4913355;29;20293;-78
2021/10/17 06:19:23;;;;;;;0.60;0.50;;;7.60;99.10;;;;;;4913282;29;20194;-79
2021/10/17 06:21:49;;;;;;;0.70;0.60;;;7.60;99.10;;;;;;4913296;29;20201;-79
2021/10/17 06:24:15;;;;;;;0.60;0.50;;;7.60;99.10;;;;;;4914504;29;20471;-79
2021/10/17 06:26:42;;;;;;;0.50;0.40;;;7.60;99.10;;;;;;4913100;29;20442;-78
2021/10/17 06:29:10;;;;;;;1.42;0.77;;;7.60;99.10;;;;;;4913481;29;20441;-79
2021/10/17 06:31:36;;;;;;;0.50;0.40;;;7.50;99.10;;;;;;4913150;29;20732;-78
2021/10/17 06:34:02;;;;;;;1.00;0.90;;;7.50;99.10;;;;;;4912967;29;20337;-79
2021/10/17 06:36:28;;;;;;;0.50;0.40;;;7.50;99.10;;;;;;4912932;29;20281;-78
2021/10/17 06:38:54;;;;;;;0.50;0.40;;;7.50;99.10;;;;;;4913155;29;20179;-78
2021/10/17 06:41:21;;;;;;;0.50;0.40;;;7.50;99.10;;;;;;4913284;29;20808;-79
2021/10/17 06:43:46;;;;;;;0.77;0.67;;;7.50;99.10;;;;;;4914268;29;20171;-78
2021/10/17 06:46:12;;;;;;;0.50;0.40;;;7.60;99.10;;;;;;4912798;29;20484;-78
2021/10/17 06:48:38;;;;;;;1.88;0.73;;;7.70;99.10;;;;;;4912972;29;20181;-78
2021/10/17 06:51:04;;;;;;;0.30;0.30;;;7.60;99.10;;;;;;4912926;29;20264;-78
2021/10/17 06:53:30;;;;;;;2.50;0.60;;;7.50;99.10;;;;;;4914110;29;20467;-78
2021/10/17 06:55:56;;;;;;;1.25;0.93;;;7.60;99.10;;;;;;4912864;29;20178;-78
2021/10/17 06:58:21;;;;;;;0.43;0.40;;;7.60;99.10;;;;;;4912898;29;20201;-79
2021/10/17 07:00:47;;;;;;;0.60;0.50;;;7.70;99.10;;;;;;4912750;29;20461;-78
2021/10/17 07:03:13;;;;;;;0.50;0.40;;;7.70;99.10;;;;;;4912464;29;20929;-79
2021/10/17 07:05:39;;;;;;;1.43;0.63;;;7.70;99.10;;;;;;4913615;29;20421;-78
2021/10/17 07:08:05;;;;;;;0.50;0.40;;;7.60;99.10;;;;;;4914139;29;20201;-77
2021/10/17 07:10:30;;;;;;;1.30;1.20;;;7.50;99.10;;;;;;4912576;29;20441;-79
2021/10/17 07:12:56;;;;;;;0.50;0.40;;;7.60;99.10;;;;;;4912662;29;20178;-78
2021/10/17 07:15:22;;;;;;;0.50;0.40;;;7.60;99.10;;;;;;4912559;29;20189;-78
2021/10/17 07:17:48;;;;;;;0.50;0.40;;;7.60;99.10;;;;;;4912396;29;20198;-78
2021/10/17 07:20:13;;;;;;;0.73;0.63;;;7.60;99.10;;;;;;4912348;29;20488;-77
2021/10/17 07:22:39;;;;;;;0.50;0.40;;;7.60;99.10;;;;;;4912518;29;20639;-77
2021/10/17 07:25:05;;;;;;;0.40;0.40;;;7.60;99.10;;;;;;4915284;29;20193;-77
2021/10/17 07:27:31;;;;;;;0.50;0.40;;;7.70;99.10;;;;;;4988476;23;20658;-82
2021/10/17 07:29:57;;;;;;;0.77;0.67;;;7.70;99.10;;;;;;4922756;29;20827;-82
2021/10/17 07:32:22;;;;;;;0.50;0.40;;;7.80;99.10;;;;;;4922496;29;20525;-82
2021/10/17 07:34:48;;;;;;;0.70;0.60;;;7.90;99.10;;;;;;4921905;29;20417;-81
2021/10/17 07:37:14;;;;;;;0.60;0.50;;;7.90;99.10;;;;;;4922538;29;20198;-82
2021/10/17 07:39:40;;;;;;;1.83;1.73;;;7.90;99.10;;;;;;4923173;29;20464;-82
2021/10/17 07:42:05;;;;;;;0.50;0.40;;;7.90;99.10;;;;;;4922517;29;20926;-82
2021/10/17 07:44:31;;;;;;;0.50;0.40;;;7.80;99.10;;;;;;4921149;29;20477;-83
2021/10/17 07:46:58;;;;;;;0.50;0.40;;;7.80;99.10;;;;;;4921515;29;20513;-83
2021/10/17 07:49:23;;;;;;;4.80;0.85;;;7.90;99.10;;;;;;4922198;29;20429;-82
2021/10/17 07:51:52;;;;;;;0.60;0.50;;;8.00;99.10;;;;;;4922249;29;20740;-83
2021/10/17 07:54:18;;;;;;;0.50;0.40;;;8.20;99.10;;;;;;4921819;29;20505;-83
2021/10/17 07:56:44;;;;;;;0.30;0.30;;;8.30;99.10;;;;;;4921013;29;20217;-83
2021/10/17 07:59:10;;;;;;;0.50;0.50;;;8.40;99.10;;;;;;4921230;29;20202;-83
2021/10/17 08:01:35;;;;;;;3.00;0.90;;;8.50;99.10;;;;;;4921362;29;20174;-83
2021/10/17 08:04:01;;;;;;;0.40;0.40;;;8.70;99.10;;;;;;4921768;29;20426;-83
2021/10/17 08:06:27;;;;;;;2.47;0.73;;;8.70;99.10;;;;;;4922526;29;20456;-83
2021/10/17 08:08:53;;;;;;;0.77;0.67;;;8.80;99.10;;;;;;4921857;29;20465;-83
2021/10/17 08:11:19;;;;;;;0.50;0.40;;;8.90;99.10;;;;;;4921789;29;20402;-83
2021/10/17 08:13:45;;;;;;;0.50;0.40;;;9.00;99.10;;;;;;4921220;29;20183;-83
2021/10/17 08:16:11;;;;;;;0.60;0.50;;;9.00;99.10;;;;;;4919948;29;20271;-83
2021/10/17 08:18:37;;;;;;;1.15;0.60;;;9.20;99.10;;;;;;4920753;29;20547;-84
2021/10/17 08:21:04;;;;;;;2.63;0.93;;;9.20;98.30;;;;;;4919738;29;20205;-83
2021/10/17 08:23:29;;;;;;;0.55;0.52;;;9.10;98.00;;;;;;4921019;29;20619;-84
2021/10/17 08:25:55;;;;;;;0.53;0.43;;;9.10;98.40;;;;;;4920191;29;20170;-83
2021/10/17 08:28:21;;;;;;;0.80;0.70;;;9.20;98.60;;;;;;4921289;29;20666;-83
2021/10/17 08:30:48;;;;;;;0.60;0.50;;;9.30;98.30;;;;;;4921610;29;20426;-84
2021/10/17 08:33:15;;;;;;;0.50;0.50;;;9.40;98.40;;;;;;4920107;29;20783;-83
2021/10/17 08:35:41;;;;;;;0.50;0.40;;;9.40;97.50;;;;;;4917812;29;20184;-84
2021/10/17 08:38:07;;;;;;;0.70;0.60;;;9.50;97.60;;;;;;4919072;29;20292;-84
2021/10/17 08:40:32;;;;;;;0.93;0.80;;;9.50;97.70;;;;;;4919348;29;20454;-83
2021/10/17 08:42:58;;;;;;;1.00;0.90;;;9.70;97.80;;;;;;4920860;29;20918;-83
2021/10/17 08:45:24;;;;;;;1.70;0.80;;;9.80;97.00;;;;;;4920577;29;20414;-83
2021/10/17 08:47:50;;;;;;;0.50;0.40;;;9.90;96.40;;;;;;4919940;29;20194;-84
2021/10/17 08:50:17;;;;;;;0.40;0.40;;;10.00;96.00;;;;;;4920328;29;20205;-84
2021/10/17 08:52:44;;;;;;;0.50;0.40;;;10.10;95.50;;;;;;4920614;29;20340;-84
2021/10/17 08:55:12;;;;;;;0.70;0.60;;;10.00;95.20;;;;;;4925899;29;20178;-85
2021/10/17 08:57:38;;;;;;;0.50;0.50;;;10.10;95.80;;;;;;4922491;29;20198;-85
2021/10/17 09:00:32;;;;;;;0.40;0.40;;;10.10;95.30;;;;;;4921051;29;20209;-85
2021/10/17 09:02:59;;;;;;;0.68;0.63;;;10.10;95.80;;;;;;4922835;29;20174;-85
2021/10/17 09:05:43;;;;;;;2.10;0.65;;;10.10;95.60;;;;;;4923515;29;20205;-85
2021/10/17 09:08:14;;;;;;;0.80;0.80;;;10.10;95.90;;;;;;4920090;29;20226;-85
2021/10/17 09:10:40;;;;;;;0.75;0.57;;;10.00;96.00;;;;;;4918779;29;20178;-84
2021/10/17 09:13:12;;;;;;;1.85;0.75;;;10.00;96.60;;;;;;4919610;29;20268;-84
2021/10/17 09:15:38;;;;;;;3.72;1.50;;;10.10;96.00;;;;;;4920053;29;20177;-84
2021/10/17 09:18:12;;;;;;;0.80;0.70;;;10.00;96.10;;;;;;4919651;29;20569;-85
2021/10/17 09:20:47;;;;;;;0.95;0.52;;;10.10;96.50;;;;;;4918290;29;20205;-85
2021/10/17 09:23:22;;;;;;;0.82;0.82;;;10.20;96.30;;;;;;4920110;29;20176;-83
2021/10/17 09:25:50;;;;;;;3.85;0.90;;;10.30;95.60;;;;;;4918978;29;20177;-83
2021/10/17 09:28:29;;;;;;;0.50;0.40;;;10.40;95.70;;;;;;4919636;29;20206;-82
2021/10/17 09:31:03;;;;;;;0.50;0.40;;;10.60;95.50;;;;;;4920086;29;20623;-83
2021/10/17 09:33:30;;;;;;;0.50;0.40;;;10.70;94.60;;;;;;4919087;29;20665;-83
2021/10/17 09:35:56;;;;;;;1.98;0.60;;;10.80;95.00;;;;;;4918472;29;20181;-83
2021/10/17 09:38:39;;;;;;;0.70;0.63;;;10.80;94.70;;;;;;4918291;29;20229;-83
2021/10/17 09:41:15;;;;;;;0.45;0.40;;;10.80;93.70;;;;;;4918006;29;20280;-83
2021/10/17 09:43:48;;;;;;;0.73;0.63;;;10.60;94.40;;;;;;4917127;29;20169;-83
2021/10/17 09:46:15;;;;;;;4.25;1.33;;;10.50;95.00;;;;;;4916747;29;20182;-83
2021/10/17 09:48:42;;;;;;;0.50;0.45;;;10.60;95.60;;;;;;4916711;29;20646;-82
2021/10/17 09:51:10;;;;;;;3.50;1.33;;;10.60;94.80;;;;;;4916420;29;20680;-82
2021/10/17 09:53:48;;;;;;;1.80;1.70;;;10.60;94.90;;;;;;4915945;29;20210;-83
2021/10/17 09:56:38;;;;;;;7.55;2.63;;;10.70;94.80;;;;;;4917212;29;20229;-82
2021/10/17 09:59:13;;;;;;;1.02;0.88;;;10.70;94.20;;;;;;4917530;29;20182;-83
2021/10/17 10:01:41;;;;;;;1.08;0.98;;;10.80;95.00;;;;;;4917594;29;20177;-82
2021/10/17 10:04:09;;;;;;;5.68;1.23;;;10.80;94.20;;;;;;4917291;29;20178;-82
2021/10/17 10:06:35;;;;;;;0.52;0.43;;;10.70;94.30;;;;;;4917317;29;20249;-83
2021/10/17 10:09:07;;;;;;;0.87;0.50;;;10.70;95.10;;;;;;4917888;29;20170;-83
2021/10/17 10:11:33;;;;;;;3.80;0.70;;;10.80;94.80;;;;;;4917474;29;20624;-82
2021/10/17 10:14:05;;;;;;;0.82;0.63;;;10.80;94.60;;;;;;4916785;29;20181;-83
2021/10/17 10:16:32;;;;;;;0.40;0.40;;;10.90;94.80;;;;;;4920485;29;20297;-82
2021/10/17 10:19:00;;;;;;;0.65;0.60;;;10.80;94.40;;;;;;4917065;29;20201;-82
2021/10/17 10:21:27;;;;;;;1.13;1.05;;;10.90;94.70;;;;;;4918489;29;20574;-82
2021/10/17 10:23:55;;;;;;;0.75;0.65;;;11.00;94.70;;;;;;4917592;29;20777;-82
2021/10/17 10:26:29;;;;;;;1.33;0.60;;;11.10;94.00;;;;;;4917269;29;20243;-82
2021/10/17 10:28:56;;;;;;;0.50;0.40;;;11.20;93.10;;;;;;4917997;29;20517;-82
2021/10/17 10:31:40;;;;;;;1.67;0.95;;;11.10;93.90;;;;;;4917726;29;20178;-82
2021/10/17 10:34:07;;;;;;;0.85;0.60;;;11.30;93.30;;;;;;4918662;29;20173;-82
2021/10/17 10:36:46;;;;;;;1.13;1.02;;;11.10;93.40;;;;;;4920496;29;20190;-83
2021/10/17 10:39:18;;;;;;;1.25;1.05;;;11.10;93.90;;;;;;4917909;29;20297;-83
2021/10/17 10:41:47;;;;;;;0.60;0.50;;;11.10;94.30;;;;;;4920154;29;20174;-81
2021/10/17 10:44:16;;;;;;;0.85;0.70;;;11.20;94.20;;;;;;4918195;29;20173;-81
2021/10/17 10:46:43;;;;;;;2.85;0.77;;;11.20;93.80;;;;;;4918306;29;20339;-81
2021/10/17 10:49:09;;;;;;;0.50;0.40;;;11.30;93.70;;;;;;4918245;29;20178;-82
2021/10/17 10:51:39;;;;;;;1.67;1.15;;;11.30;93.80;;;;;;4918134;29;20181;-82
2021/10/17 10:54:26;;;;;;;0.70;0.60;;;11.40;93.60;;;;;;4918323;29;20209;-82
2021/10/17 10:56:53;;;;;;;1.10;1.00;;;11.40;93.20;;;;;;4925981;28;20240;-82
2021/10/17 10:59:21;;;;;;;1.30;0.75;;;11.40;93.80;;;;;;4919726;29;20199;-82
2021/10/17 11:01:55;;;;;;;2.38;2.13;;;11.50;93.40;;;;;;4920389;29;20181;-82
2021/10/17 11:04:44;;;;;;;1.25;1.15;;;11.60;92.50;;;;;;4919714;29;20166;-82
2021/10/17 11:07:17;;;;;;;9.98;1.25;;;11.50;93.60;;;;;;4921270;29;20221;-81
2021/10/17 11:09:43;;;;;;;0.50;0.40;;;11.70;93.10;;;;;;4920334;29;20178;-81
2021/10/17 11:12:09;;;;;;;1.52;0.90;;;11.70;92.60;;;;;;4942088;28;20189;-82
2021/10/17 11:14:35;;;;;;;1.38;0.98;;;11.80;93.00;;;;;;5006905;28;20225;-82
2021/10/17 11:17:06;;;;;;;4.30;1.50;;;11.90;92.80;;;;;;4921329;28;20233;-82
2021/10/17 11:19:33;;;;;;;4.70;1.65;;;11.80;92.60;;;;;;4956166;28;20502;-82
2021/10/17 11:22:03;;;;;;;2.28;1.60;;;11.80;93.00;;;;;;5017353;28;20242;-82
2021/10/17 11:24:30;;;;;;;2.33;2.05;;;11.70;93.10;;;;;;5017298;28;20182;-81
2021/10/17 11:27:11;;;;;;;0.75;0.65;;;11.80;93.00;;;;;;5017494;28;20238;-83
2021/10/17 11:29:41;;;;;;;6.78;0.80;;;11.90;93.20;;;;;;4927916;28;20184;-82
2021/10/17 11:32:16;;;;;;;2.80;1.50;;;12.10;93.00;;;;;;4933515;29;20190;-83
2021/10/17 11:35:03;;;;;;;1.35;1.25;;;12.30;92.80;;;;;;4932768;29;20585;-82
2021/10/17 11:37:31;;;;;;;0.90;0.80;;;12.40;92.00;;;;;;4916366;28;20212;-82
2021/10/17 11:39:59;;;;;;;5.03;1.15;;;12.40;91.30;;;;;;4932470;29;20198;-82
2021/10/17 11:42:26;;;;;;;0.98;0.88;;;12.30;91.50;;;;;;4932738;29;20170;-82
2021/10/17 11:44:52;;;;;;;0.63;0.60;;;12.20;92.40;;;;;;4945488;28;20708;-81
2021/10/17 11:47:22;;;;;;;1.47;0.97;;;12.20;91.90;;;;;;5016496;28;20198;-82
2021/10/17 11:49:48;;;;;;;1.38;1.27;;;12.20;93.00;;;;;;5016812;28;20508;-82
2021/10/17 11:52:15;;;;;;;0.88;0.63;;;12.20;92.30;;;;;;5017276;28;20203;-82
2021/10/17 11:54:42;;;;;;;0.95;0.85;;;12.30;92.60;;;;;;5017342;28;20194;-83
2021/10/17 11:57:08;;;;;;;0.65;0.57;;;12.30;92.70;;;;;;4959766;28;20202;-82
2021/10/17 11:59:35;;;;;;;1.77;0.45;;;12.40;92.50;;;;;;4917698;29;20201;-81
2021/10/17 12:02:00;;;;;;;1.13;1.02;;;12.60;92.50;;;;;;4917570;29;20174;-83
2021/10/17 12:04:42;;;;;;;1.83;1.10;;;12.70;91.80;;;;;;4917197;29;20733;-82
2021/10/17 12:07:08;;;;;;;2.15;0.60;;;12.90;91.50;;;;;;4917922;29;20434;-82
2021/10/17 12:09:34;;;;;;;0.80;0.70;;;13.00;90.80;;;;;;4918487;29;20189;-82
2021/10/17 12:12:00;;;;;;;0.93;0.87;;;13.10;90.70;;;;;;4920255;29;20418;-83
2021/10/17 12:14:27;;;;;;;0.70;0.60;;;13.20;90.50;;;;;;4919969;29;20995;-82
2021/10/17 12:16:56;;;;;;;1.67;0.95;;;13.20;89.90;;;;;;4919489;29;20202;-83
2021/10/17 12:19:26;;;;;;;0.75;0.70;;;13.10;90.80;;;;;;4947945;28;20186;-82
2021/10/17 12:21:52;;;;;;;0.75;0.60;;;13.20;90.90;;;;;;5020535;28;20174;-82
2021/10/17 12:24:21;;;;;;;3.08;1.40;;;13.30;90.10;;;;;;5019084;28;20200;-83
2021/10/17 12:26:53;;;;;;;0.47;0.40;;;13.30;88.90;;;;;;5024951;28;20213;-80
2021/10/17 12:29:22;;;;;;;1.13;1.02;;;13.10;90.10;;;;;;5023419;28;20178;-83
2021/10/17 12:31:52;;;;;;;1.35;1.20;;;13.10;91.30;;;;;;5026237;28;20178;-82
2021/10/17 12:34:46;;;;;;;1.70;1.45;;;13.10;90.40;;;;;;5026740;28;20198;-82
2021/10/17 12:37:16;;;;;;;0.40;0.40;;;13.10;90.50;;;;;;5022930;28;20198;-83
2021/10/17 12:39:42;;;;;;;1.77;1.50;;;13.20;90.50;;;;;;5018011;28;20225;-82
2021/10/17 12:42:08;;;;;;;3.80;1.02;;;13.10;90.50;;;;;;5018428;28;20178;-82
2021/10/17 12:45:01;;;;;;;0.93;0.82;;;13.00;90.90;;;;;;5018651;28;20197;-81
2021/10/17 12:47:39;;;;;;;1.45;1.00;;;13.00;91.00;;;;;;5016071;28;20199;-82
2021/10/17 12:50:13;;;;;;;2.97;2.78;;;13.00;90.50;;;;;;4968979;28;20177;-82
2021/10/17 12:52:39;;;;;;;0.40;0.40;;;12.80;91.70;;;;;;4920897;29;20669;-82
2021/10/17 12:55:05;;;;;;;1.90;0.87;;;12.80;91.90;;;;;;4919141;29;20185;-81